createdAt,value
2017-09-05T00:00:20.123Z,1018.430
2017-09-05T00:06:09.675Z,1018.447
2017-09-05T00:09:04.571Z,1018.443
2017-09-05T00:11:59.302Z,1018.427
2017-09-05T00:14:54.163Z,1018.405
2017-09-05T00:17:48.936Z,1018.384
2017-09-05T00:23:38.606Z,1018.398
2017-09-05T00:26:33.381Z,1018.445
2017-09-05T00:29:28.217Z,1018.429
2017-09-05T00:32:23.016Z,1018.447
2017-09-05T00:35:17.775Z,1018.454
2017-09-05T00:38:12.617Z,1018.458
2017-09-05T00:41:07.488Z,1018.459
2017-09-05T00:44:02.313Z,1018.446
2017-09-05T00:46:57.041Z,1018.437
2017-09-05T00:49:51.876Z,1018.433
2017-09-05T00:52:46.629Z,1018.443
2017-09-05T00:55:41.401Z,1018.488
2017-09-05T00:58:36.194Z,1018.545
2017-09-05T01:01:31.018Z,1018.530
2017-09-05T01:04:26.069Z,1018.550
2017-09-05T01:07:20.903Z,1018.516
2017-09-05T01:10:15.662Z,1018.478
2017-09-05T01:13:10.384Z,1018.459
2017-09-05T01:16:05.219Z,1018.434
2017-09-05T01:18:59.858Z,1018.429
2017-09-05T01:21:54.543Z,1018.419
2017-09-05T01:24:49.134Z,1018.425
2017-09-05T01:27:43.902Z,1018.432
2017-09-05T01:30:38.532Z,1018.412
2017-09-05T01:33:33.342Z,1018.362
2017-09-05T01:36:27.998Z,1018.370
2017-09-05T01:39:22.748Z,1018.357
2017-09-05T01:42:17.457Z,1018.361
2017-09-05T01:45:12.272Z,1018.342
2017-09-05T01:48:07.117Z,1018.365
2017-09-05T01:51:01.880Z,1018.383
2017-09-05T01:53:56.766Z,1018.350
2017-09-05T01:56:51.577Z,1018.330
2017-09-05T01:59:46.351Z,1018.326
2017-09-05T02:02:41.318Z,1018.336
2017-09-05T02:05:36.218Z,1018.371
2017-09-05T02:11:25.992Z,1018.356
2017-09-05T02:14:20.874Z,1018.324
2017-09-05T02:17:15.726Z,1018.341
2017-09-05T02:20:10.557Z,1018.371
2017-09-05T02:23:05.337Z,1018.356
2017-09-05T02:26:00.268Z,1018.376
2017-09-05T02:28:55.156Z,1018.418
2017-09-05T02:31:50.079Z,1018.455
2017-09-05T02:34:44.926Z,1018.413
2017-09-05T02:37:39.708Z,1018.375
2017-09-05T02:40:34.421Z,1018.364
2017-09-05T02:43:29.104Z,1018.329
2017-09-05T02:46:23.800Z,1018.293
2017-09-05T02:49:18.537Z,1018.285
2017-09-05T02:52:13.204Z,1018.269
2017-09-05T02:55:07.822Z,1018.274
2017-09-05T02:58:02.563Z,1018.318
2017-09-05T03:00:57.176Z,1018.383
2017-09-05T03:06:46.359Z,1018.387
2017-09-05T03:09:41.367Z,1018.367
2017-09-05T03:12:36.090Z,1018.367
2017-09-05T03:18:25.468Z,1018.378
2017-09-05T03:21:20.150Z,1018.399
2017-09-05T03:24:14.843Z,1018.338
2017-09-05T03:30:04.344Z,1018.300
2017-09-05T03:32:59.072Z,1018.246
2017-09-05T03:35:53.866Z,1018.228
2017-09-05T03:38:48.644Z,1018.232
2017-09-05T03:41:43.446Z,1018.280
2017-09-05T03:45:12.105Z,1018.244
2017-09-05T03:47:58.710Z,1018.297
2017-09-05T03:50:53.258Z,1018.278
2017-09-05T03:53:47.968Z,1018.287
2017-09-05T03:56:42.713Z,1018.277
2017-09-05T03:59:37.431Z,1018.277
2017-09-05T04:06:06.893Z,1018.386
2017-09-05T04:08:50.770Z,1018.434
2017-09-05T04:11:44.785Z,1018.476
2017-09-05T04:14:39.182Z,1018.462
2017-09-05T04:17:33.774Z,1018.477
2017-09-05T04:20:28.812Z,1018.548
2017-09-05T04:23:23.514Z,1018.569
2017-09-05T04:26:18.117Z,1018.585
2017-09-05T04:29:12.734Z,1018.565
2017-09-05T04:32:07.250Z,1018.571
2017-09-05T04:35:01.881Z,1018.551
2017-09-05T04:37:56.580Z,1018.503
2017-09-05T04:40:51.271Z,1018.555
2017-09-05T04:43:45.824Z,1018.571
2017-09-05T04:51:56.843Z,1018.533
2017-09-05T04:54:40.313Z,1018.561
2017-09-05T04:57:34.030Z,1018.530
2017-09-05T05:00:28.419Z,1018.513
2017-09-05T05:03:22.924Z,1018.536
2017-09-05T05:06:17.622Z,1018.581
2017-09-05T05:09:12.325Z,1018.625
2017-09-05T05:12:06.924Z,1018.642
2017-09-05T05:15:01.621Z,1018.630
2017-09-05T05:23:35.322Z,1018.665
2017-09-05T05:26:18.854Z,1018.699
2017-09-05T05:29:12.705Z,1018.685
2017-09-05T05:32:07.074Z,1018.704
2017-09-05T05:35:01.752Z,1018.725
2017-09-05T05:37:56.442Z,1018.766
2017-09-05T05:40:51.185Z,1018.807
2017-09-05T05:43:45.959Z,1018.795
2017-09-05T05:52:19.648Z,1018.897
2017-09-05T05:55:03.313Z,1018.871
2017-09-05T05:57:57.150Z,1018.878
2017-09-05T06:00:51.532Z,1018.838
2017-09-05T06:03:46.311Z,1018.828
2017-09-05T06:06:40.840Z,1018.792
2017-09-05T06:14:52.045Z,1018.776
2017-09-05T06:17:35.646Z,1018.801
2017-09-05T06:20:29.596Z,1018.800
2017-09-05T06:23:24.064Z,1018.769
2017-09-05T06:26:18.706Z,1018.790
2017-09-05T06:29:13.424Z,1018.785
2017-09-05T06:32:08.101Z,1018.781
2017-09-05T06:35:03.031Z,1018.775
2017-09-05T06:37:57.890Z,1018.772
2017-09-05T06:40:52.701Z,1018.781
2017-09-05T06:43:47.589Z,1018.731
2017-09-05T06:46:42.426Z,1018.717
2017-09-05T06:49:37.329Z,1018.752
2017-09-05T06:52:32.211Z,1018.719
2017-09-05T06:55:27.062Z,1018.736
2017-09-05T06:58:21.920Z,1018.710
2017-09-05T07:01:16.792Z,1018.712
2017-09-05T07:04:11.681Z,1018.704
2017-09-05T07:07:06.678Z,1018.755
2017-09-05T07:10:01.571Z,1018.747
2017-09-05T07:12:56.522Z,1018.733
2017-09-05T07:15:51.398Z,1018.747
2017-09-05T07:18:46.392Z,1018.753
2017-09-05T07:21:41.355Z,1018.723
2017-09-05T07:24:36.289Z,1018.708
2017-09-05T07:27:31.374Z,1018.690
2017-09-05T07:30:26.273Z,1018.712
2017-09-05T07:33:21.281Z,1018.698
2017-09-05T07:36:16.279Z,1018.724
2017-09-05T07:39:11.192Z,1018.783
2017-09-05T07:42:06.164Z,1018.805
2017-09-05T07:45:01.063Z,1018.779
2017-09-05T07:47:56.118Z,1018.758
2017-09-05T07:50:51.150Z,1018.798
2017-09-05T07:53:46.110Z,1018.749
2017-09-05T07:56:41.167Z,1018.755
2017-09-05T07:59:36.074Z,1018.760
2017-09-05T08:02:31.055Z,1018.771
2017-09-05T08:05:26.098Z,1018.804
2017-09-05T08:08:21.219Z,1018.834
2017-09-05T08:11:16.287Z,1018.910
2017-09-05T08:14:11.489Z,1018.826
2017-09-05T08:17:06.626Z,1018.869
2017-09-05T08:20:01.644Z,1018.871
2017-09-05T08:22:56.733Z,1018.909
2017-09-05T08:25:51.713Z,1018.899
2017-09-05T08:28:46.769Z,1018.891
2017-09-05T08:31:41.877Z,1018.890
2017-09-05T08:34:36.953Z,1018.931
2017-09-05T08:37:32.056Z,1018.878
2017-09-05T08:40:27.151Z,1018.905
2017-09-05T08:43:22.389Z,1018.839
2017-09-05T08:46:17.600Z,1018.831
2017-09-05T08:49:12.581Z,1018.801
2017-09-05T08:52:07.701Z,1018.824
2017-09-05T08:55:02.916Z,1018.741
2017-09-05T08:57:58.060Z,1018.746
2017-09-05T09:00:53.386Z,1018.750
2017-09-05T09:03:48.541Z,1018.773
2017-09-05T09:06:43.801Z,1018.745
2017-09-05T09:09:39.123Z,1018.731
2017-09-05T09:12:34.369Z,1018.723
2017-09-05T09:15:29.864Z,1018.721
2017-09-05T09:18:25.406Z,1018.675
2017-09-05T09:21:21.086Z,1018.667
2017-09-05T09:24:16.663Z,1018.605
2017-09-05T09:27:12.407Z,1018.627
2017-09-05T09:30:08.521Z,1018.634
2017-09-05T09:33:04.529Z,1018.633
2017-09-05T09:36:00.590Z,1018.629
2017-09-05T09:38:56.719Z,1018.560
2017-09-05T09:41:52.893Z,1018.573
2017-09-05T09:44:49.156Z,1018.575
2017-09-05T09:47:45.179Z,1018.567
2017-09-05T09:50:41.372Z,1018.533
2017-09-05T09:53:37.420Z,1018.507
2017-09-05T09:56:33.810Z,1018.551
2017-09-05T09:59:30.029Z,1018.503
2017-09-05T10:02:26.112Z,1018.438
2017-09-05T10:05:22.033Z,1018.512
2017-09-05T10:08:17.977Z,1018.535
2017-09-05T10:11:13.889Z,1018.519
2017-09-05T10:14:10.069Z,1018.459
2017-09-05T10:17:06.298Z,1018.444
2017-09-05T10:20:02.496Z,1018.387
2017-09-05T10:22:58.737Z,1018.300
2017-09-05T10:25:54.863Z,1018.263
2017-09-05T10:28:50.985Z,1018.258
2017-09-05T10:31:47.041Z,1018.245
2017-09-05T10:37:38.800Z,1018.271
2017-09-05T10:40:34.642Z,1018.205
2017-09-05T10:43:30.456Z,1018.299
2017-09-05T10:46:26.194Z,1018.254
2017-09-05T10:49:21.954Z,1018.246
2017-09-05T10:52:17.637Z,1018.231
2017-09-05T10:55:13.423Z,1018.332
2017-09-05T10:58:09.127Z,1018.264
2017-09-05T11:01:04.914Z,1018.284
2017-09-05T11:04:00.579Z,1018.290
2017-09-05T11:06:56.586Z,1018.273
2017-09-05T11:09:52.275Z,1018.239
2017-09-05T11:12:48.048Z,1018.278
2017-09-05T11:15:43.839Z,1018.223
2017-09-05T11:18:39.542Z,1018.225
2017-09-05T11:21:35.211Z,1018.219
2017-09-05T11:24:31.050Z,1018.170
2017-09-05T11:27:26.582Z,1018.115
2017-09-05T11:30:22.153Z,1018.103
2017-09-05T11:33:17.837Z,1018.061
2017-09-05T11:36:13.370Z,1018.038
2017-09-05T11:39:08.969Z,1018.022
2017-09-05T11:42:04.515Z,1018.036
2017-09-05T11:45:00.082Z,1018.018
2017-09-05T11:47:55.672Z,1017.989
2017-09-05T11:50:51.221Z,1017.999
2017-09-05T11:53:46.784Z,1017.980
2017-09-05T11:56:42.459Z,1017.945
2017-09-05T11:59:37.800Z,1017.908
2017-09-05T12:05:28.666Z,1017.847
2017-09-05T12:08:24.156Z,1017.831
2017-09-05T12:11:19.560Z,1017.814
2017-09-05T12:14:14.976Z,1017.770
2017-09-05T12:17:10.366Z,1017.832
2017-09-05T12:20:05.834Z,1017.763
2017-09-05T12:23:01.177Z,1017.815
2017-09-05T12:25:56.420Z,1017.836
2017-09-05T12:28:51.679Z,1017.846
2017-09-05T12:31:47.024Z,1017.801
2017-09-05T12:34:42.316Z,1017.810
2017-09-05T12:37:37.679Z,1017.805
2017-09-05T12:40:32.894Z,1017.780
2017-09-05T12:43:28.112Z,1017.787
2017-09-05T12:46:23.521Z,1017.746
2017-09-05T12:49:18.805Z,1017.766
2017-09-05T12:52:14.117Z,1017.722
2017-09-05T12:55:09.392Z,1017.730
2017-09-05T12:58:04.771Z,1017.676
2017-09-05T13:01:00.071Z,1017.629
2017-09-05T13:03:55.305Z,1017.617
2017-09-05T13:06:50.701Z,1017.606
2017-09-05T13:09:46.090Z,1017.584
2017-09-05T13:12:41.367Z,1017.578
2017-09-05T13:15:36.832Z,1017.529
2017-09-05T13:18:32.169Z,1017.488
2017-09-05T13:21:27.488Z,1017.512
2017-09-05T13:24:22.708Z,1017.480
2017-09-05T13:27:18.046Z,1017.428
2017-09-05T13:33:08.530Z,1017.385
2017-09-05T13:36:03.759Z,1017.400
2017-09-05T13:38:59.076Z,1017.365
2017-09-05T13:41:54.333Z,1017.401
2017-09-05T13:44:49.720Z,1017.323
2017-09-05T13:47:45.053Z,1017.354
2017-09-05T13:50:40.301Z,1017.365
2017-09-05T13:53:35.646Z,1017.364
2017-09-05T13:56:30.829Z,1017.364
2017-09-05T13:59:26.298Z,1017.352
2017-09-05T14:02:21.570Z,1017.362
2017-09-05T14:05:16.902Z,1017.388
2017-09-05T14:08:12.157Z,1017.413
2017-09-05T14:11:07.361Z,1017.367
2017-09-05T14:14:02.606Z,1017.355
2017-09-05T14:16:57.907Z,1017.345
2017-09-05T14:19:53.079Z,1017.335
2017-09-05T14:22:48.480Z,1017.371
2017-09-05T14:25:43.725Z,1017.346
2017-09-05T14:28:39.012Z,1017.318
2017-09-05T14:31:34.388Z,1017.286
2017-09-05T14:34:29.656Z,1017.283
2017-09-05T14:37:24.927Z,1017.294
2017-09-05T14:40:20.197Z,1017.308
2017-09-05T14:43:15.422Z,1017.265
2017-09-05T14:46:10.682Z,1017.279
2017-09-05T14:49:05.877Z,1017.262
2017-09-05T14:52:00.954Z,1017.250
2017-09-05T14:54:56.124Z,1017.208
2017-09-05T14:57:51.402Z,1017.248
2017-09-05T15:00:46.679Z,1017.246
2017-09-05T15:03:41.865Z,1017.287
2017-09-05T15:06:37.139Z,1017.279
2017-09-05T15:09:32.371Z,1017.285
2017-09-05T15:12:27.569Z,1017.264
2017-09-05T15:15:22.742Z,1017.290
2017-09-05T15:18:17.980Z,1017.267
2017-09-05T15:21:13.368Z,1017.266
2017-09-05T15:24:08.648Z,1017.217
2017-09-05T15:27:03.895Z,1017.238
2017-09-05T15:29:59.146Z,1017.215
2017-09-05T15:32:54.355Z,1017.183
2017-09-05T15:35:49.632Z,1017.194
2017-09-05T15:38:44.915Z,1017.190
2017-09-05T15:41:40.153Z,1017.172
2017-09-05T15:44:35.433Z,1017.183
2017-09-05T15:47:30.630Z,1017.186
2017-09-05T15:50:25.874Z,1017.172
2017-09-05T15:53:21.179Z,1017.220
2017-09-05T15:56:16.391Z,1017.228
2017-09-05T15:59:11.741Z,1017.218
2017-09-05T16:02:06.977Z,1017.237
2017-09-05T16:05:02.196Z,1017.245
2017-09-05T16:07:57.384Z,1017.223
2017-09-05T16:10:52.600Z,1017.210
2017-09-05T16:16:43.075Z,1017.235
2017-09-05T16:19:38.177Z,1017.221
2017-09-05T16:22:33.417Z,1017.207
2017-09-05T16:25:28.648Z,1017.198
2017-09-05T16:28:23.755Z,1017.177
2017-09-05T16:31:18.905Z,1017.152
2017-09-05T16:34:14.150Z,1017.138
2017-09-05T16:37:09.325Z,1017.116
2017-09-05T16:40:04.555Z,1017.123
2017-09-05T16:42:59.770Z,1017.112
2017-09-05T16:45:54.977Z,1017.087
2017-09-05T16:48:50.184Z,1017.076
2017-09-05T16:51:45.382Z,1017.078
2017-09-05T16:54:40.817Z,1017.100
2017-09-05T16:57:35.997Z,1017.113
2017-09-05T17:00:31.264Z,1017.068
2017-09-05T17:03:26.456Z,1017.064
2017-09-05T17:06:21.719Z,1017.029
2017-09-05T17:09:17.031Z,1017.004
2017-09-05T17:12:12.264Z,1016.999
2017-09-05T17:15:07.359Z,1017.006
2017-09-05T17:18:02.493Z,1017.023
2017-09-05T17:20:57.673Z,1017.014
2017-09-05T17:26:47.938Z,1016.998
2017-09-05T17:29:43.157Z,1017.001
2017-09-05T17:32:38.423Z,1017.004
2017-09-05T17:35:33.555Z,1017.011
2017-09-05T17:38:28.801Z,1016.990
2017-09-05T17:41:23.921Z,1016.968
2017-09-05T17:50:09.331Z,1016.990
2017-09-05T17:53:04.417Z,1017.018
2017-09-05T17:55:59.453Z,1017.034
2017-09-05T17:58:54.450Z,1017.037
2017-09-05T18:01:49.528Z,1017.053
2017-09-05T18:04:44.698Z,1017.044
2017-09-05T18:07:39.852Z,1017.075
2017-09-05T18:10:34.967Z,1017.118
2017-09-05T18:13:30.017Z,1017.123
2017-09-05T18:16:25.155Z,1017.128
2017-09-05T18:19:20.428Z,1017.141
2017-09-05T18:22:15.577Z,1017.158
2017-09-05T18:25:10.655Z,1017.166
2017-09-05T18:28:05.635Z,1017.208
2017-09-05T18:31:00.803Z,1017.222
2017-09-05T18:33:55.883Z,1017.190
2017-09-05T18:36:50.938Z,1017.197
2017-09-05T18:39:46.086Z,1017.195
2017-09-05T18:42:41.045Z,1017.216
2017-09-05T18:45:36.103Z,1017.211
2017-09-05T18:48:31.224Z,1017.237
2017-09-05T18:51:26.286Z,1017.211
2017-09-05T18:54:21.392Z,1017.173
2017-09-05T18:57:16.519Z,1017.166
2017-09-05T19:00:11.685Z,1017.191
2017-09-05T19:03:06.887Z,1017.239
2017-09-05T19:06:01.971Z,1017.236
2017-09-05T19:08:57.156Z,1017.231
2017-09-05T19:11:52.256Z,1017.254
2017-09-05T19:14:47.307Z,1017.249
2017-09-05T19:17:42.408Z,1017.256
2017-09-05T19:20:37.482Z,1017.267
2017-09-05T19:23:32.533Z,1017.246
2017-09-05T19:26:27.570Z,1017.239
2017-09-05T19:29:22.750Z,1017.221
2017-09-05T19:32:17.753Z,1017.187
2017-09-05T19:35:12.836Z,1017.209
2017-09-05T19:38:07.861Z,1017.212
2017-09-05T19:41:03.004Z,1017.202
2017-09-05T19:43:58.056Z,1017.199
2017-09-05T19:46:53.110Z,1017.183
2017-09-05T19:49:48.161Z,1017.158
2017-09-05T19:52:43.302Z,1017.128
2017-09-05T19:55:38.198Z,1017.120
2017-09-05T19:58:33.320Z,1017.100
2017-09-05T20:01:28.297Z,1017.090
2017-09-05T20:04:23.388Z,1017.051
2017-09-05T20:07:18.360Z,1017.031
2017-09-05T20:10:13.493Z,1017.002
2017-09-05T20:13:08.645Z,1017.007
2017-09-05T20:16:03.655Z,1016.998
2017-09-05T20:18:58.683Z,1016.990
2017-09-05T20:21:53.740Z,1016.986
2017-09-05T20:24:48.781Z,1017.007
2017-09-05T20:27:43.897Z,1017.033
2017-09-05T20:30:38.860Z,1017.046
2017-09-05T20:33:33.794Z,1017.084
2017-09-05T20:36:28.715Z,1017.072
2017-09-05T20:39:23.915Z,1017.062
2017-09-05T20:42:18.865Z,1017.079
2017-09-05T20:45:13.835Z,1017.074
2017-09-05T20:48:08.812Z,1017.076
2017-09-05T20:51:03.943Z,1017.053
2017-09-05T20:53:58.941Z,1017.047
2017-09-05T20:56:53.993Z,1017.019
2017-09-05T20:59:49.035Z,1017.012
2017-09-05T21:02:44.035Z,1017.001
2017-09-05T21:05:39.083Z,1017.028
2017-09-05T21:08:34.218Z,1016.980
2017-09-05T21:11:29.320Z,1016.943
2017-09-05T21:14:24.335Z,1016.920
2017-09-05T21:17:19.318Z,1016.908
2017-09-05T21:20:14.367Z,1016.872
2017-09-05T21:23:09.473Z,1016.862
2017-09-05T21:26:04.558Z,1016.848
2017-09-05T21:28:59.583Z,1016.818
2017-09-05T21:31:54.624Z,1016.807
2017-09-05T21:34:49.734Z,1016.779
2017-09-05T21:37:45.047Z,1016.750
2017-09-05T21:40:40.099Z,1016.748
2017-09-05T21:43:35.266Z,1016.741
2017-09-05T21:46:30.408Z,1016.713
2017-09-05T21:49:25.378Z,1016.691
2017-09-05T21:52:20.507Z,1016.668
2017-09-05T21:55:15.635Z,1016.605
2017-09-05T21:58:10.713Z,1016.598
2017-09-05T22:01:05.776Z,1016.581
2017-09-05T22:09:50.854Z,1016.580
2017-09-05T22:12:46.412Z,1016.592
2017-09-05T22:15:41.459Z,1016.582
2017-09-05T22:18:36.437Z,1016.558
2017-09-05T22:21:31.472Z,1016.525
2017-09-05T22:24:26.445Z,1016.512
2017-09-05T22:27:21.472Z,1016.477
2017-09-05T22:30:16.353Z,1016.452
2017-09-05T22:33:11.290Z,1016.462
2017-09-05T22:36:06.347Z,1016.441
2017-09-05T22:39:01.318Z,1016.449
2017-09-05T22:41:56.405Z,1016.411
2017-09-05T22:44:51.450Z,1016.387
2017-09-05T22:47:46.483Z,1016.364
2017-09-05T22:50:41.351Z,1016.328
2017-09-05T22:53:36.397Z,1016.318
2017-09-05T22:56:31.362Z,1016.284
2017-09-05T22:59:26.300Z,1016.223
2017-09-05T23:02:21.226Z,1016.203
2017-09-05T23:05:16.290Z,1016.221
2017-09-05T23:08:11.298Z,1016.202
2017-09-05T23:11:06.317Z,1016.194
2017-09-05T23:14:01.448Z,1016.207
2017-09-05T23:16:56.446Z,1016.192
2017-09-05T23:19:51.418Z,1016.193
2017-09-05T23:22:46.486Z,1016.164
2017-09-05T23:28:36.450Z,1016.157
2017-09-05T23:31:31.491Z,1016.105
2017-09-05T23:34:26.409Z,1016.042
2017-09-05T23:37:21.566Z,1016.018
2017-09-05T23:40:16.540Z,1015.963
2017-09-05T23:47:42.756Z,1015.879
2017-09-05T23:50:26.724Z,1015.821
2017-09-05T23:53:20.907Z,1015.806
2017-09-05T23:56:15.676Z,1015.779
2017-09-05T23:59:10.572Z,1015.725
